Time;durP1;ratioP1;P1;durP2;ratioP2;P2;SDS_P1;SDS_P2;PMS_P1;PMS_P2;Temp;Humidity;BMP_temperature;BMP_pressure;BME280_temperature;BME280_humidity;BME280_pressure;Samples;Min_cycle;Max_cycle;Signal;HPM_P1;HPM_P2
2022/09/19 00:01:20;;;;;;;7.85;7.22;;;15.70;99.90;;;;;;4866137;29;20046;-95
2022/09/19 00:04:02;;;;;;;7.63;7.10;;;15.70;99.90;;;;;;4854078;29;20033;-94
2022/09/19 00:06:41;;;;;;;8.60;7.80;;;15.70;99.90;;;;;;4852643;29;20045;-95
2022/09/19 00:09:13;;;;;;;11.68;7.68;;;15.60;99.90;;;;;;4854004;29;20499;-94
2022/09/19 00:11:58;;;;;;;8.45;7.65;;;15.60;99.90;;;;;;4856297;29;20071;-94
2022/09/19 00:14:40;;;;;;;8.60;7.68;;;15.50;99.90;;;;;;4855741;29;20033;-94
2022/09/19 00:17:15;;;;;;;11.05;8.00;;;15.50;99.90;;;;;;4867511;29;20042;-95
2022/09/19 00:19:53;;;;;;;8.68;7.80;;;15.60;99.90;;;;;;4876660;29;20068;-94
2022/09/19 00:26:35;;;;;;;8.80;8.10;;;15.60;99.90;;;;;;4921218;29;20046;-94
2022/09/19 00:29:22;;;;;;;;;;;;;;;;;;;;;
2022/09/19 00:32:29;;;;;;;8.18;7.57;;;15.60;99.90;;;;;;4911689;29;20040;-95
2022/09/19 00:35:26;;;;;;;7.70;7.10;;;15.50;99.90;;;;;;4912642;29;20251;-94
2022/09/19 00:44:38;;;;;;;7.22;6.72;;;15.30;99.90;;;;;;5040024;23;20128;-95
2022/09/19 00:47:25;;;;;;;6.80;6.30;;;15.10;99.90;;;;;;4966929;28;20079;-94
2022/09/19 00:50:07;;;;;;;7.70;6.80;;;15.10;99.90;;;;;;4973554;28;20038;-95
2022/09/19 00:53:16;;;;;;;6.85;6.28;;;15.00;99.90;;;;;;4972229;28;20554;-94
2022/09/19 00:55:45;;;;;;;7.95;6.45;;;15.00;99.90;;;;;;4970818;28;20038;-94
2022/09/19 00:58:57;;;;;;;6.88;6.18;;;14.90;99.90;;;;;;4972572;28;20026;-93
2022/09/19 01:01:33;;;;;;;7.43;6.30;;;14.80;99.90;;;;;;4971895;28;20043;-95
2022/09/19 01:04:01;;;;;;;8.10;6.38;;;14.80;99.90;;;;;;4971409;28;20061;-95
2022/09/19 01:06:52;;;;;;;8.02;5.90;;;14.70;99.90;;;;;;4966999;28;20026;-94
2022/09/19 01:09:55;;;;;;;7.07;6.47;;;14.70;99.90;;;;;;4979864;28;20026;-94
2022/09/19 01:13:09;;;;;;;;;;;;;;;;;;;;;
2022/09/19 01:16:08;;;;;;;7.22;5.78;;;14.70;99.90;;;;;;4987660;28;20041;-94
2022/09/19 01:19:05;;;;;;;7.18;5.68;;;14.60;99.90;;;;;;4968559;28;20030;-94
2022/09/19 01:22:03;;;;;;;6.13;5.68;;;14.50;99.90;;;;;;4968158;28;20445;-94
2022/09/19 01:24:45;;;;;;;5.90;5.40;;;14.50;99.90;;;;;;4940618;28;20034;-94
2022/09/19 01:28:08;;;;;;;6.47;5.50;;;14.40;99.90;;;;;;4967686;28;20037;-94
2022/09/19 01:31:16;;;;;;;7.15;5.47;;;14.40;99.90;;;;;;4940796;29;20036;-94
2022/09/19 01:34:29;;;;;;;6.47;6.00;;;14.40;99.90;;;;;;4926766;29;20031;-94
2022/09/19 01:37:16;;;;;;;9.98;6.22;;;14.30;99.90;;;;;;4929294;29;20091;-93
2022/09/19 01:40:25;;;;;;;7.88;5.63;;;14.40;99.90;;;;;;4928752;29;20075;-93
2022/09/19 01:43:14;;;;;;;6.10;5.50;;;14.40;99.90;;;;;;4935107;29;20052;-94
2022/09/19 01:46:35;;;;;;;5.88;5.38;;;14.40;99.90;;;;;;4910004;29;20035;-94
2022/09/19 01:49:39;;;;;;;5.90;5.40;;;14.40;99.90;;;;;;4900555;29;20048;-93
2022/09/19 01:53:11;;;;;;;;;;;;;;;;;;;;;
2022/09/19 01:56:16;;;;;;;9.73;5.90;;;14.40;99.90;;;;;;4872443;29;20030;-94
2022/09/19 01:59:03;;;;;;;8.75;5.90;;;14.40;99.90;;;;;;4853009;29;20145;-94
2022/09/19 02:01:39;;;;;;;10.27;5.90;;;14.40;99.90;;;;;;4859298;29;20059;-94
2022/09/19 02:04:30;;;;;;;9.98;5.65;;;14.30;99.90;;;;;;4890155;29;20133;-94
2022/09/19 02:07:08;;;;;;;6.28;5.65;;;14.30;99.90;;;;;;4890532;29;20149;-94
2022/09/19 02:09:49;;;;;;;7.35;5.80;;;14.20;99.90;;;;;;4890910;29;20032;-94
2022/09/19 02:12:34;;;;;;;6.68;5.95;;;14.20;99.90;;;;;;4891160;29;20040;-94
2022/09/19 02:15:15;;;;;;;8.18;5.65;;;14.10;99.90;;;;;;4891478;29;20037;-94
2022/09/19 02:18:04;;;;;;;7.50;5.80;;;14.00;99.90;;;;;;4891218;29;20036;-94
2022/09/19 02:20:44;;;;;;;5.88;5.28;;;14.00;99.90;;;;;;4891854;29;20548;-94
2022/09/19 02:23:24;;;;;;;6.05;5.47;;;14.00;99.90;;;;;;4926757;28;20051;-94
2022/09/19 02:26:03;;;;;;;5.30;4.90;;;14.00;99.90;;;;;;4952784;28;20102;-94
2022/09/19 02:28:54;;;;;;;6.07;5.55;;;14.00;99.90;;;;;;4952619;28;20062;-93
2022/09/19 02:31:34;;;;;;;5.95;5.25;;;14.00;99.90;;;;;;4951538;28;20023;-94
2022/09/19 02:34:07;;;;;;;9.40;4.70;;;14.00;99.90;;;;;;4952309;28;20045;-93
2022/09/19 02:37:21;;;;;;;6.15;5.00;;;14.00;99.90;;;;;;4951730;28;20075;-95
2022/09/19 02:40:38;;;;;;;8.80;5.22;;;14.00;99.90;;;;;;4952676;28;20070;-93
2022/09/19 02:43:43;;;;;;;4.93;4.63;;;14.10;99.90;;;;;;4953732;28;20058;-94
2022/09/19 02:46:43;;;;;;;4.78;4.57;;;14.10;99.90;;;;;;4973213;28;20046;-93
2022/09/19 02:49:24;;;;;;;5.25;4.80;;;14.10;99.90;;;;;;4909060;29;20506;-94
2022/09/19 02:52:17;;;;;;;4.75;4.50;;;14.10;99.90;;;;;;4924689;29;20047;-94
2022/09/19 02:54:54;;;;;;;5.30;4.80;;;14.10;99.90;;;;;;4925006;29;20035;-94
2022/09/19 02:57:39;;;;;;;5.05;4.75;;;14.20;99.90;;;;;;4926015;29;20145;-95
2022/09/19 03:00:12;;;;;;;4.95;4.55;;;14.20;99.90;;;;;;4907081;29;20067;-95
2022/09/19 03:15:18;;;;;;;4.47;4.07;;;13.70;99.90;;;;;;5908921;23;20081;-94
2022/09/19 03:21:34;;;;;;;;;;;;;;;;;;;;;
2022/09/19 03:24:07;;;;;;;4.55;3.67;;;13.40;99.90;;;;;;4993776;28;20034;-93
2022/09/19 03:27:11;;;;;;;4.72;3.60;;;13.30;99.90;;;;;;4986269;28;20030;-94
2022/09/19 03:29:49;;;;;;;3.80;3.58;;;13.20;99.90;;;;;;4951986;28;20062;-94
2022/09/19 03:32:26;;;;;;;5.93;3.60;;;13.10;99.90;;;;;;4979145;28;20038;-93
2022/09/19 03:34:56;;;;;;;4.30;3.90;;;13.10;99.90;;;;;;4968814;28;20037;-94
2022/09/19 03:37:50;;;;;;;3.55;3.38;;;13.10;99.90;;;;;;4971486;28;20062;-94
2022/09/19 03:40:25;;;;;;;3.88;3.42;;;13.10;99.90;;;;;;4971496;28;20026;-94
2022/09/19 03:46:35;;;;;;;3.97;3.47;;;13.20;99.90;;;;;;4920447;29;20036;-94
2022/09/19 03:54:28;;;;;;;;;;;;;;;;;;;;;
2022/09/19 03:57:34;;;;;;;4.95;3.50;;;13.50;99.90;;;;;;5295069;23;20058;-93
2022/09/19 04:06:36;;;;;;;3.80;3.42;;;13.20;99.90;;;;;;5145008;23;20047;-93
2022/09/19 04:09:12;;;;;;;4.97;3.40;;;13.00;99.90;;;;;;4991010;28;20030;-94
2022/09/19 04:20:58;;;;;;;3.55;3.25;;;12.80;99.90;;;;;;4971030;28;20043;-92
2022/09/19 05:01:22;;;;;;;4.75;3.13;;;12.50;99.90;;;;;;4989087;28;20019;-93
2022/09/19 05:04:15;;;;;;;5.75;3.20;;;12.90;99.90;;;;;;4919835;29;20047;-93
2022/09/19 05:06:56;;;;;;;8.13;3.67;;;13.00;99.90;;;;;;4904321;29;20479;-93
2022/09/19 05:12:30;;;;;;;4.10;3.72;;;13.10;99.90;;;;;;6003487;23;20380;-91
2022/09/19 05:15:19;;;;;;;5.43;4.63;;;13.40;99.90;;;;;;4965857;28;20072;-93
2022/09/19 05:17:52;;;;;;;6.88;6.20;;;14.20;99.90;;;;;;5103148;23;20029;-78
2022/09/19 05:20:21;;;;;;;6.88;6.30;;;15.20;99.90;;;;;;4996158;28;20034;-89
2022/09/19 05:22:48;;;;;;;7.53;6.93;;;16.40;99.90;;;;;;4978252;28;20499;-87
2022/09/19 05:25:30;;;;;;;9.40;7.65;;;17.50;99.90;;;;;;4962423;28;20033;-89
2022/09/19 05:27:58;;;;;;;9.80;8.77;;;18.40;99.90;;;;;;4962390;28;20479;-85
2022/09/19 05:30:29;;;;;;;11.57;10.80;;;18.60;99.90;;;;;;4978218;28;20431;-87
2022/09/19 05:32:55;;;;;;;12.60;12.00;;;19.10;99.90;;;;;;4962140;28;20057;-85
2022/09/19 05:35:27;;;;;;;13.15;11.90;;;19.90;99.90;;;;;;4964565;28;20026;-89
2022/09/19 05:38:31;;;;;;;13.40;12.60;;;20.50;99.90;;;;;;4930118;29;20028;-92
2022/09/19 05:41:05;;;;;;;14.50;13.55;;;21.30;99.90;;;;;;4926537;29;20046;-87
2022/09/19 05:44:05;;;;;;;14.73;13.70;;;21.80;99.90;;;;;;4915114;29;20119;-93
2022/09/19 05:49:23;;;;;;;15.30;14.20;;;22.30;99.90;;;;;;4997785;28;20047;-93
2022/09/19 05:51:56;;;;;;;17.55;14.88;;;22.80;99.90;;;;;;4969338;28;20092;-93
2022/09/19 05:54:28;;;;;;;17.35;15.30;;;23.00;99.90;;;;;;4965676;28;20399;-93
2022/09/19 05:57:07;;;;;;;15.85;14.73;;;23.10;99.90;;;;;;4967613;28;20044;-93
2022/09/19 05:59:34;;;;;;;15.50;14.50;;;23.40;99.90;;;;;;4964967;28;20026;-93
2022/09/19 06:02:01;;;;;;;16.02;14.98;;;23.80;99.90;;;;;;4964867;28;20554;-93
2022/09/19 06:04:53;;;;;;;16.30;15.20;;;23.90;99.90;;;;;;4984235;28;20030;-94
2022/09/19 06:07:23;;;;;;;15.20;14.30;;;24.30;99.90;;;;;;4965080;28;20034;-92
2022/09/19 06:09:52;;;;;;;15.23;14.23;;;24.50;99.90;;;;;;4965238;28;20038;-94
2022/09/19 06:12:20;;;;;;;15.07;14.27;;;24.50;99.90;;;;;;4965043;28;20077;-94
2022/09/19 06:14:51;;;;;;;15.18;14.38;;;24.70;99.90;;;;;;4969574;28;20073;-94
2022/09/19 06:17:41;;;;;;;15.43;14.60;;;24.50;99.90;;;;;;4992066;28;20038;-93
2022/09/19 06:20:18;;;;;;;16.20;15.30;;;24.50;99.90;;;;;;4965788;28;20114;-94
2022/09/19 06:23:15;;;;;;;17.23;15.93;;;24.70;99.90;;;;;;4983479;28;20118;-94
2022/09/19 06:25:42;;;;;;;16.50;15.35;;;25.10;99.90;;;;;;4965285;28;20057;-93
2022/09/19 06:28:13;;;;;;;15.73;14.65;;;25.60;99.90;;;;;;4964895;28;20073;-94
2022/09/19 06:33:43;;;;;;;15.55;14.50;;;25.80;99.90;;;;;;4969496;28;20066;-91
2022/09/19 06:36:30;;;;;;;16.38;15.10;;;26.10;99.90;;;;;;4986957;28;20061;-90
2022/09/19 06:38:59;;;;;;;14.80;14.10;;;26.20;99.90;;;;;;4970863;28;20030;-91
2022/09/19 06:41:38;;;;;;;14.82;13.75;;;26.20;99.90;;;;;;4984749;28;20085;-92
2022/09/19 06:44:32;;;;;;;14.93;14.05;;;26.20;99.90;;;;;;4981270;28;20098;-92
2022/09/19 06:47:19;;;;;;;15.15;14.02;;;26.20;99.90;;;;;;4992238;23;20070;-92
2022/09/19 06:50:04;;;;;;;15.07;14.07;;;26.50;99.90;;;;;;4993311;28;20042;-93
2022/09/19 06:52:33;;;;;;;15.00;14.20;;;27.10;99.90;;;;;;4973296;28;20026;-92
2022/09/19 06:55:03;;;;;;;14.77;13.98;;;27.30;99.90;;;;;;4989762;28;20022;-93
2022/09/19 06:57:31;;;;;;;15.00;14.10;;;27.50;99.90;;;;;;5147790;23;20134;-93
2022/09/19 07:00:00;;;;;;;15.00;14.10;;;27.70;99.90;;;;;;4979930;28;20036;-94
2022/09/19 07:02:30;;;;;;;15.52;14.65;;;28.10;99.90;;;;;;4966157;28;20045;-93
2022/09/19 07:04:57;;;;;;;15.13;14.10;;;28.20;99.90;;;;;;4980506;28;20034;-91
2022/09/19 07:07:51;;;;;;;14.93;13.95;;;28.30;99.90;;;;;;4980741;28;20042;-92
2022/09/19 07:10:20;;;;;;;15.48;14.57;;;28.10;99.90;;;;;;4979553;28;20034;-92
2022/09/19 07:13:04;;;;;;;15.75;14.70;;;28.00;99.90;;;;;;4963538;28;20403;-93
2022/09/19 07:15:37;;;;;;;16.35;15.45;;;27.60;99.90;;;;;;4963546;28;20451;-93
2022/09/19 07:18:10;;;;;;;16.15;15.05;;;27.60;99.90;;;;;;4963666;28;20084;-92
2022/09/19 07:20:41;;;;;;;15.43;14.45;;;27.60;99.90;;;;;;4963960;28;20057;-92
2022/09/19 07:23:18;;;;;;;14.95;14.25;;;27.10;99.90;;;;;;4964323;28;20027;-93
2022/09/19 07:26:03;;;;;;;15.15;14.50;;;26.40;99.90;;;;;;4980040;28;20034;-92
2022/09/19 07:29:14;;;;;;;15.10;14.40;;;26.50;99.90;;;;;;4981180;28;20034;-94
2022/09/19 07:35:44;;;;;;;14.88;14.27;;;26.90;99.90;;;;;;4868964;29;20120;-94
2022/09/19 07:38:22;;;;;;;15.43;14.70;;;27.10;99.90;;;;;;4848749;29;20047;-93
2022/09/19 07:41:18;;;;;;;15.73;14.90;;;26.80;99.90;;;;;;4850218;29;20100;-93
2022/09/19 07:44:03;;;;;;;15.43;14.57;;;26.80;99.90;;;;;;4849188;29;20052;-94
2022/09/19 07:50:18;;;;;;;16.00;15.20;;;26.70;99.90;;;;;;4863668;29;20128;-93
2022/09/19 07:53:05;;;;;;;15.10;14.40;;;27.00;99.90;;;;;;4852875;29;20050;-92
2022/09/19 07:55:41;;;;;;;15.90;15.00;;;27.00;99.90;;;;;;4852283;29;20041;-93
2022/09/19 07:58:11;;;;;;;15.57;14.77;;;27.30;99.90;;;;;;4847059;29;20129;-93
2022/09/19 08:00:48;;;;;;;15.40;14.63;;;27.30;99.90;;;;;;4832828;29;20048;-93
2022/09/19 08:03:38;;;;;;;15.68;14.70;;;27.30;99.90;;;;;;4848993;29;20037;-93
2022/09/19 08:13:07;;;;;;;15.73;15.02;;;26.80;99.90;;;;;;5271651;23;20062;-94
2022/09/19 08:15:35;;;;;;;15.50;14.60;;;27.00;99.90;;;;;;4963033;28;20026;-93
2022/09/19 08:18:13;;;;;;;15.93;15.02;;;27.30;99.90;;;;;;4964592;28;20030;-92
2022/09/19 08:20:43;;;;;;;15.70;14.90;;;27.30;99.90;;;;;;4980160;28;20084;-93
2022/09/19 08:23:20;;;;;;;15.50;14.70;;;27.60;99.90;;;;;;4980547;28;20039;-94
2022/09/19 08:26:09;;;;;;;16.20;15.18;;;27.60;99.90;;;;;;4964550;28;20026;-93
2022/09/19 08:28:49;;;;;;;15.90;15.00;;;27.60;99.90;;;;;;4965941;28;20495;-93
2022/09/19 08:31:18;;;;;;;16.50;15.55;;;27.50;99.90;;;;;;4962078;28;20062;-93
2022/09/19 08:33:48;;;;;;;15.98;15.18;;;27.60;99.90;;;;;;4962407;28;20031;-94
2022/09/19 08:36:16;;;;;;;16.50;15.50;;;27.40;99.90;;;;;;4962051;28;20577;-92
2022/09/19 08:38:49;;;;;;;15.20;14.35;;;27.50;99.90;;;;;;4962873;28;20476;-94
2022/09/19 08:42:07;;;;;;;15.82;14.98;;;27.30;99.90;;;;;;4978420;28;20038;-93
2022/09/19 08:45:00;;;;;;;15.75;14.95;;;27.10;99.90;;;;;;4923126;29;20035;-93
2022/09/19 08:47:31;;;;;;;16.00;15.00;;;27.10;99.90;;;;;;4938769;29;20035;-92
2022/09/19 08:50:09;;;;;;;15.40;14.60;;;27.10;99.90;;;;;;4954701;29;20633;-92
2022/09/19 08:52:48;;;;;;;15.65;14.88;;;27.30;99.90;;;;;;4938815;29;20412;-93
2022/09/19 08:55:27;;;;;;;15.77;14.98;;;27.30;99.90;;;;;;4954451;29;20043;-92
2022/09/19 08:57:57;;;;;;;;;;;27.20;99.90;;;;;;4969878;23;20532;-92
2022/09/19 09:00:32;;;;;;;15.57;14.77;;;27.20;99.90;;;;;;4961765;28;20381;-94
2022/09/19 09:03:07;;;;;;;16.70;15.70;;;27.20;99.90;;;;;;4977937;28;20117;-92
2022/09/19 09:05:59;;;;;;;16.83;15.93;;;27.20;99.90;;;;;;4944257;28;20367;-93
2022/09/19 09:08:41;;;;;;;16.20;15.20;;;27.10;99.90;;;;;;4942737;28;20030;-93
2022/09/19 09:11:50;;;;;;;16.20;15.05;;;27.20;99.90;;;;;;4945196;28;20093;-92
2022/09/19 09:14:46;;;;;;;15.57;14.60;;;26.80;99.90;;;;;;4962562;28;20138;-93
2022/09/19 09:17:23;;;;;;;15.85;14.98;;;26.90;99.90;;;;;;4946680;28;20381;-93
2022/09/19 09:20:28;;;;;;;15.02;14.23;;;27.20;99.90;;;;;;4949473;28;20035;-93
2022/09/19 09:23:04;;;;;;;15.45;14.68;;;27.30;99.90;;;;;;5010503;23;20132;-92
2022/09/19 09:25:53;;;;;;;15.80;14.90;;;27.10;99.90;;;;;;4984124;28;20507;-92
2022/09/19 09:28:55;;;;;;;;;;;;;;;;;;;;;
2022/09/19 09:31:57;;;;;;;16.85;15.30;;;26.80;99.90;;;;;;4977264;28;20038;-92
2022/09/19 09:35:29;;;;;;;16.15;15.25;;;27.30;99.90;;;;;;4914234;29;20040;-93
2022/09/19 09:46:08;;;;;;;15.95;14.88;;;26.70;99.90;;;;;;5769030;23;20911;-93
2022/09/19 09:48:39;;;;;;;17.20;15.77;;;26.40;99.90;;;;;;4979035;28;20102;-94
2022/09/19 09:51:25;;;;;;;15.32;14.43;;;26.70;99.90;;;;;;4973165;28;20038;-89
2022/09/19 09:54:03;;;;;;;15.88;14.93;;;27.10;99.90;;;;;;4965674;28;20106;-93
2022/09/19 09:56:54;;;;;;;15.60;14.73;;;27.40;99.90;;;;;;4946546;28;20031;-94
2022/09/19 10:05:43;;;;;;;16.10;14.90;;;28.10;99.90;;;;;;4958238;29;20485;-94
2022/09/19 10:08:19;;;;;;;15.95;15.15;;;28.00;99.90;;;;;;4957671;29;20063;-95
2022/09/19 10:10:53;;;;;;;15.18;14.48;;;27.60;99.90;;;;;;4957910;29;20027;-93
2022/09/19 10:13:27;;;;;;;14.98;14.38;;;26.90;99.90;;;;;;4958733;29;20027;-93
2022/09/19 10:16:03;;;;;;;15.40;14.40;;;27.20;99.90;;;;;;4957726;29;20126;-94
2022/09/19 10:18:59;;;;;;;15.55;14.75;;;27.30;99.90;;;;;;4965348;29;20035;-91
2022/09/19 10:21:26;;;;;;;15.68;14.75;;;27.50;99.90;;;;;;4958020;28;20035;-79
2022/09/19 10:23:56;;;;;;;16.10;15.20;;;27.60;99.90;;;;;;4958184;29;20027;-78
2022/09/19 10:26:30;;;;;;;15.63;14.77;;;27.70;99.90;;;;;;4956628;29;20492;-79
2022/09/19 10:29:02;;;;;;;15.95;15.05;;;27.80;99.90;;;;;;4957878;29;20095;-83
2022/09/19 10:31:38;;;;;;;16.10;15.07;;;27.60;99.90;;;;;;4956824;29;20043;-83
2022/09/19 10:34:34;;;;;;;16.70;15.40;;;27.70;99.90;;;;;;4954932;29;20038;-83
2022/09/19 10:37:09;;;;;;;15.77;14.88;;;27.80;99.90;;;;;;4940469;29;20443;-83
2022/09/19 10:39:44;;;;;;;15.77;15.07;;;28.00;99.90;;;;;;4958084;29;20023;-82
2022/09/19 10:42:30;;;;;;;15.98;15.18;;;27.80;99.90;;;;;;4957677;29;20041;-81
2022/09/19 10:45:02;;;;;;;15.40;14.60;;;28.00;99.90;;;;;;4956695;29;20035;-80
2022/09/19 10:47:36;;;;;;;15.57;14.77;;;27.90;99.90;;;;;;4956468;29;20501;-81
2022/09/19 10:50:24;;;;;;;15.48;14.50;;;27.90;99.90;;;;;;4956351;29;20027;-80
2022/09/19 10:53:04;;;;;;;15.40;14.55;;;27.80;99.90;;;;;;4941954;29;20087;-81
2022/09/19 10:55:36;;;;;;;15.70;14.90;;;27.50;99.90;;;;;;4956302;29;20035;-80
2022/09/19 10:58:27;;;;;;;15.57;14.88;;;27.30;99.90;;;;;;4956399;29;20063;-80
2022/09/19 11:01:04;;;;;;;15.63;14.82;;;27.40;99.90;;;;;;4940301;29;20029;-82
2022/09/19 11:04:02;;;;;;;15.20;14.50;;;27.50;99.90;;;;;;4957328;29;20066;-82
2022/09/19 11:06:31;;;;;;;15.33;14.63;;;27.80;99.90;;;;;;4955913;29;20086;-82
2022/09/19 11:08:59;;;;;;;15.60;14.60;;;27.80;99.90;;;;;;4955768;29;20275;-82
2022/09/19 11:11:50;;;;;;;16.40;15.50;;;27.90;99.90;;;;;;4955751;29;20036;-82
2022/09/19 11:14:41;;;;;;;15.05;14.30;;;27.90;99.90;;;;;;4956999;29;20456;-81
2022/09/19 11:18:01;;;;;;;16.08;15.00;;;27.90;99.90;;;;;;4956561;29;20035;-82
2022/09/19 11:21:30;;;;;;;17.13;16.13;;;28.00;99.90;;;;;;4956234;29;20412;-86
2022/09/19 11:24:18;;;;;;;15.63;14.73;;;27.70;99.90;;;;;;4925815;29;20070;-85
2022/09/19 11:27:07;;;;;;;16.13;15.23;;;27.80;99.90;;;;;;4955944;29;20555;-86
2022/09/19 11:29:53;;;;;;;16.10;15.40;;;27.60;99.90;;;;;;4955550;29;20083;-83
2022/09/19 11:35:55;;;;;;;16.20;15.25;;;27.70;99.90;;;;;;4992235;23;20074;-92
2022/09/19 11:38:46;;;;;;;15.77;14.98;;;27.70;99.90;;;;;;4959957;28;20117;-94
2022/09/19 11:41:44;;;;;;;16.15;15.02;;;27.70;99.90;;;;;;4961239;28;20210;-95
2022/09/19 11:44:35;;;;;;;15.82;14.90;;;27.60;99.90;;;;;;4943786;28;20034;-93
2022/09/19 11:47:25;;;;;;;15.98;15.07;;;27.70;99.90;;;;;;4959498;28;20039;-93
2022/09/19 11:50:18;;;;;;;15.95;14.85;;;27.90;99.90;;;;;;4959259;28;20073;-93
2022/09/19 11:53:12;;;;;;;15.75;14.95;;;27.90;99.90;;;;;;4944470;28;20039;-94
2022/09/19 11:56:36;;;;;;;15.60;14.82;;;27.70;99.90;;;;;;4946182;28;20105;-96
2022/09/19 11:59:33;;;;;;;16.05;15.15;;;27.50;99.90;;;;;;4959791;28;20551;-95
2022/09/19 12:02:36;;;;;;;15.85;15.05;;;27.50;99.90;;;;;;4959693;28;20096;-92
2022/09/19 12:05:15;;;;;;;15.85;14.93;;;27.60;99.90;;;;;;4943359;28;20114;-94
2022/09/19 12:08:15;;;;;;;15.73;15.00;;;27.50;99.90;;;;;;4943502;28;20027;-95
2022/09/19 12:10:48;;;;;;;15.85;14.95;;;27.40;99.90;;;;;;4928078;28;20089;-93
2022/09/19 12:13:23;;;;;;;15.75;14.82;;;27.10;99.90;;;;;;4943379;28;20031;-94
2022/09/19 12:15:59;;;;;;;15.93;15.07;;;27.20;99.90;;;;;;4959189;28;20031;-94
2022/09/19 12:19:14;;;;;;;15.60;14.80;;;27.30;99.90;;;;;;4959051;28;20034;-94
2022/09/19 12:21:52;;;;;;;;;;;27.30;99.90;;;;;;4930855;28;20045;-94
2022/09/19 12:28:01;;;;;;;15.52;14.63;;;27.00;99.90;;;;;;4958657;28;20496;-94
2022/09/19 12:30:34;;;;;;;15.88;14.88;;;26.90;99.90;;;;;;4958475;28;20030;-93
2022/09/19 12:33:19;;;;;;;16.00;15.10;;;26.80;99.90;;;;;;4958795;28;20031;-92
2022/09/19 12:35:58;;;;;;;16.50;15.40;;;26.90;99.90;;;;;;4958376;28;20489;-91
2022/09/19 12:38:50;;;;;;;15.45;14.65;;;26.80;99.90;;;;;;4958471;28;20034;-92
2022/09/19 12:41:40;;;;;;;16.00;15.00;;;26.90;99.90;;;;;;4942827;28;20039;-91
2022/09/19 12:44:26;;;;;;;15.20;14.50;;;27.10;99.90;;;;;;4958442;28;20055;-93
2022/09/19 12:47:20;;;;;;;15.48;14.73;;;27.30;99.90;;;;;;4957501;28;20031;-91
2022/09/19 12:50:18;;;;;;;17.00;15.48;;;27.00;99.90;;;;;;4944290;28;20073;-91
2022/09/19 12:59:00;;;;;;;15.70;14.70;;;27.00;99.90;;;;;;5074905;23;20058;-93
2022/09/19 13:01:33;;;;;;;16.15;14.93;;;27.00;99.90;;;;;;4977461;28;20026;-94
2022/09/19 13:04:30;;;;;;;15.77;14.87;;;26.90;99.90;;;;;;4981268;28;20046;-92
2022/09/19 13:07:48;;;;;;;;;;;;;;;;;;;;;
2022/09/19 13:10:47;;;;;;;15.27;14.38;;;26.90;99.90;;;;;;4960925;28;20554;-92
2022/09/19 13:25:05;;;;;;;15.18;14.15;;;27.10;99.90;;;;;;5269481;23;20070;-93
2022/09/19 13:28:00;;;;;;;15.13;14.20;;;26.90;99.90;;;;;;4970309;28;20074;-96
2022/09/19 13:30:53;;;;;;;14.95;13.90;;;26.90;99.90;;;;;;4970809;28;20015;-93
2022/09/19 13:37:37;;;;;;;15.10;14.20;;;27.20;99.90;;;;;;4959443;29;20119;-93
2022/09/19 13:41:00;;;;;;;;;;;;;;;;;;;;;
2022/09/19 22:51:56;;;;;;;4.75;2.33;;;18.30;99.90;;;;;;4988118;23;20058;-92
2022/09/19 23:21:54;;;;;;;2.25;1.67;;;18.10;99.90;;;;;;5084078;23;20050;-92
2022/09/19 23:24:27;;;;;;;5.20;2.08;;;18.10;99.90;;;;;;4979353;28;20480;-92
2022/09/19 23:26:58;;;;;;;11.18;2.33;;;18.10;99.90;;;;;;4963833;28;20057;-92
2022/09/19 23:29:26;;;;;;;3.13;1.70;;;18.10;99.90;;;;;;4963010;28;20036;-92
2022/09/19 23:31:53;;;;;;;4.03;2.08;;;18.00;99.90;;;;;;4963077;28;20018;-92
2022/09/19 23:34:20;;;;;;;6.72;1.98;;;18.00;99.90;;;;;;4963338;28;20121;-92
2022/09/19 23:36:49;;;;;;;5.28;2.05;;;18.10;99.90;;;;;;4963250;28;20510;-92
2022/09/19 23:39:16;;;;;;;4.13;2.25;;;18.00;99.90;;;;;;4963900;28;20117;-94
2022/09/19 23:41:42;;;;;;;3.72;2.13;;;18.00;99.90;;;;;;4962983;28;20121;-93
2022/09/19 23:44:09;;;;;;;3.90;2.33;;;18.00;99.90;;;;;;4963029;28;20376;-92
2022/09/19 23:46:36;;;;;;;5.43;1.90;;;18.00;99.90;;;;;;4962794;28;20027;-95
2022/09/19 23:49:04;;;;;;;3.83;2.20;;;18.00;99.90;;;;;;4962836;28;20035;-94
2022/09/19 23:51:34;;;;;;;3.58;1.73;;;17.90;99.90;;;;;;4963026;28;20109;-92
2022/09/19 23:54:02;;;;;;;5.30;2.30;;;17.90;99.90;;;;;;4963173;28;20034;-94
2022/09/19 23:56:32;;;;;;;5.90;2.65;;;17.80;99.90;;;;;;4962694;28;20028;-94
2022/09/19 23:58:59;;;;;;;4.97;2.22;;;17.80;99.90;;;;;;4962334;28;20030;-93
